createdAt,value
2018-05-15T00:01:04.954Z,7.80
2018-05-15T00:03:33.226Z,6.77
2018-05-15T00:06:01.296Z,9.20
2018-05-15T00:08:30.226Z,9.20
2018-05-15T00:10:58.519Z,7.70
2018-05-15T00:13:26.570Z,8.07
2018-05-15T00:15:56.266Z,9.43
2018-05-15T00:18:24.617Z,10.90
2018-05-15T00:20:53.371Z,8.27
2018-05-15T00:23:22.051Z,11.23
2018-05-15T00:25:51.474Z,8.10
2018-05-15T00:28:19.693Z,12.50
2018-05-15T00:30:49.217Z,8.37
2018-05-15T00:33:18.523Z,8.20
2018-05-15T00:35:47.301Z,11.40
2018-05-15T00:38:16.216Z,8.43
2018-05-15T00:40:44.552Z,11.30
2018-05-15T00:43:12.873Z,13.93
2018-05-15T00:45:41.405Z,9.20
2018-05-15T00:48:10.013Z,8.10
2018-05-15T00:50:38.373Z,7.87
2018-05-15T00:53:06.725Z,11.50
2018-05-15T00:55:44.254Z,9.50
2018-05-15T00:58:13.464Z,7.87
2018-05-15T01:00:41.579Z,7.60
2018-05-15T01:03:10.290Z,9.77
2018-05-15T01:05:38.939Z,9.00
2018-05-15T01:08:07.763Z,12.90
2018-05-15T01:10:36.921Z,10.60
2018-05-15T01:13:05.557Z,9.93
2018-05-15T01:15:34.568Z,8.70
2018-05-15T01:18:03.827Z,8.23
2018-05-15T01:20:32.864Z,12.33
2018-05-15T01:23:01.518Z,8.23
2018-05-15T01:25:30.255Z,8.40
2018-05-15T01:27:58.724Z,9.40
2018-05-15T01:30:26.981Z,8.97
2018-05-15T01:32:55.304Z,8.13
2018-05-15T01:35:24.018Z,8.73
2018-05-15T01:37:52.297Z,10.40
2018-05-15T01:40:20.606Z,9.33
2018-05-15T01:42:49.812Z,10.50
2018-05-15T01:45:18.990Z,10.83
2018-05-15T01:47:48.797Z,9.60
2018-05-15T01:50:17.414Z,8.13
2018-05-15T01:52:46.904Z,9.90
2018-05-15T01:55:15.925Z,8.83
2018-05-15T01:57:45.019Z,11.00
2018-05-15T02:00:13.663Z,11.43
2018-05-15T02:02:42.283Z,8.17
2018-05-15T02:05:11.244Z,8.87
2018-05-15T02:07:40.711Z,9.97
2018-05-15T02:10:09.131Z,9.40
2018-05-15T02:12:38.029Z,11.43
2018-05-15T02:15:06.996Z,11.50
2018-05-15T02:17:35.715Z,10.80
2018-05-15T02:20:04.790Z,9.73
2018-05-15T02:22:33.486Z,10.53
2018-05-15T02:25:02.129Z,9.60
2018-05-15T02:27:31.397Z,13.50
2018-05-15T02:30:00.277Z,16.17
2018-05-15T02:32:28.431Z,12.97
2018-05-15T02:34:56.818Z,11.07
2018-05-15T02:37:26.523Z,11.93
2018-05-15T02:39:54.959Z,10.77
2018-05-15T02:42:23.191Z,10.10
2018-05-15T02:44:51.578Z,8.97
2018-05-15T02:47:19.829Z,9.03
2018-05-15T02:49:48.703Z,11.73
2018-05-15T02:52:17.581Z,11.10
2018-05-15T02:54:47.025Z,9.73
2018-05-15T02:57:16.667Z,9.70
2018-05-15T02:59:45.307Z,8.93
2018-05-15T03:02:13.341Z,9.43
2018-05-15T03:04:42.375Z,9.23
2018-05-15T03:07:10.608Z,9.80
2018-05-15T03:09:38.969Z,10.43
2018-05-15T03:12:07.622Z,14.03
2018-05-15T03:14:36.136Z,9.67
2018-05-15T03:17:04.744Z,10.73
2018-05-15T03:19:33.212Z,9.83
2018-05-15T03:22:01.628Z,9.93
2018-05-15T03:24:30.359Z,9.37
2018-05-15T03:26:58.693Z,10.23
2018-05-15T03:29:27.275Z,9.83
2018-05-15T03:31:56.026Z,12.17
2018-05-15T03:34:25.188Z,10.10
2018-05-15T03:36:54.182Z,8.83
2018-05-15T03:39:25.734Z,9.27
2018-05-15T03:41:54.859Z,11.73
2018-05-15T03:44:25.339Z,8.70
2018-05-15T03:46:53.551Z,9.60
2018-05-15T03:49:22.429Z,10.93
2018-05-15T03:51:50.891Z,10.30
2018-05-15T03:54:19.889Z,11.13
2018-05-15T03:56:48.810Z,10.77
2018-05-15T03:59:17.603Z,9.90
2018-05-15T04:01:57.914Z,8.97
2018-05-15T04:04:38.819Z,10.97
2018-05-15T04:07:18.725Z,10.93
2018-05-15T04:09:48.568Z,9.20
2018-05-15T04:12:17.653Z,10.63
2018-05-15T04:14:46.383Z,9.73
2018-05-15T04:17:15.182Z,10.37
2018-05-15T04:19:43.274Z,10.57
2018-05-15T04:22:11.861Z,10.90
2018-05-15T04:24:40.413Z,9.20
2018-05-15T04:27:09.423Z,10.40
2018-05-15T04:29:38.512Z,12.10
2018-05-15T04:32:07.972Z,10.27
2018-05-15T04:34:36.507Z,10.50
2018-05-15T04:37:05.402Z,10.10
2018-05-15T04:39:34.194Z,10.77
2018-05-15T04:42:02.945Z,12.00
2018-05-15T04:44:31.982Z,10.43
2018-05-15T04:47:00.342Z,11.10
2018-05-15T04:49:29.160Z,9.63
2018-05-15T04:51:57.720Z,10.10
2018-05-15T04:54:25.971Z,11.10
2018-05-15T04:56:54.237Z,10.00
2018-05-15T04:59:22.177Z,12.63
2018-05-15T05:01:50.741Z,10.77
2018-05-15T05:04:20.247Z,12.43
2018-05-15T05:06:49.551Z,13.17
2018-05-15T05:09:19.162Z,11.63
2018-05-15T05:11:48.056Z,10.20
2018-05-15T05:14:16.553Z,11.50
2018-05-15T05:16:45.492Z,12.60
2018-05-15T05:19:14.528Z,9.97
2018-05-15T05:21:44.006Z,10.93
2018-05-15T05:24:12.070Z,9.90
2018-05-15T05:26:40.717Z,11.97
2018-05-15T05:29:10.104Z,11.57
2018-05-15T05:31:39.943Z,11.93
2018-05-15T05:34:08.976Z,11.53
2018-05-15T05:36:37.846Z,12.93
2018-05-15T05:39:07.061Z,11.20
2018-05-15T05:41:35.934Z,14.57
2018-05-15T05:44:04.682Z,10.93
2018-05-15T05:46:33.182Z,14.30
2018-05-15T05:49:01.978Z,32.33
2018-05-15T05:51:30.850Z,28.83
2018-05-15T05:53:59.642Z,29.63
2018-05-15T05:56:28.763Z,33.70
2018-05-15T05:58:56.778Z,35.83
2018-05-15T06:01:25.387Z,19.03
2018-05-15T06:03:54.151Z,17.57
2018-05-15T06:06:23.278Z,15.43
2018-05-15T06:08:52.297Z,13.00
2018-05-15T06:11:20.435Z,11.50
2018-05-15T06:13:49.376Z,13.43
2018-05-15T06:16:19.356Z,11.73
2018-05-15T06:18:48.152Z,11.37
2018-05-15T06:21:17.241Z,10.83
2018-05-15T06:23:45.605Z,11.80
2018-05-15T06:26:14.843Z,12.10
2018-05-15T06:28:44.138Z,13.17
2018-05-15T06:31:12.789Z,10.97
2018-05-15T06:33:41.833Z,11.43
2018-05-15T06:36:10.908Z,14.20
2018-05-15T06:38:40.017Z,11.53
2018-05-15T06:41:08.753Z,14.43
2018-05-15T06:43:38.191Z,11.80
2018-05-15T06:46:06.640Z,11.63
2018-05-15T06:48:34.945Z,10.90
2018-05-15T06:51:03.340Z,10.53
2018-05-15T06:53:31.820Z,10.70
2018-05-15T06:56:00.599Z,10.07
2018-05-15T06:58:28.889Z,10.63
2018-05-15T07:00:57.465Z,8.60
2018-05-15T07:03:25.779Z,8.30
2018-05-15T07:05:54.070Z,8.80
2018-05-15T07:08:22.713Z,7.57
2018-05-15T07:10:51.764Z,7.57
2018-05-15T07:13:21.040Z,8.90
2018-05-15T07:15:49.728Z,10.13
2018-05-15T07:18:19.151Z,8.03
2018-05-15T07:20:47.495Z,9.03
2018-05-15T07:23:15.942Z,9.10
2018-05-15T07:25:45.329Z,10.30
2018-05-15T07:28:14.277Z,8.10
2018-05-15T07:30:43.018Z,7.27
2018-05-15T07:33:12.050Z,11.80
2018-05-15T07:35:42.569Z,7.93
2018-05-15T07:38:12.193Z,7.67
2018-05-15T07:40:41.424Z,8.00
2018-05-15T07:43:11.009Z,7.60
2018-05-15T07:45:39.795Z,7.20
2018-05-15T07:48:08.624Z,8.57
2018-05-15T07:50:37.232Z,7.63
2018-05-15T07:53:07.382Z,7.20
2018-05-15T07:55:36.993Z,9.90
2018-05-15T07:58:06.233Z,7.20
2018-05-15T08:00:35.568Z,7.63
2018-05-15T08:03:05.072Z,10.90
2018-05-15T08:05:33.648Z,7.37
2018-05-15T08:08:02.482Z,7.40
2018-05-15T08:10:31.135Z,10.27
2018-05-15T08:12:59.950Z,7.60
2018-05-15T08:15:28.107Z,8.23
2018-05-15T08:17:56.303Z,7.10
2018-05-15T08:20:24.879Z,6.40
2018-05-15T08:22:53.459Z,8.40
2018-05-15T08:25:22.077Z,7.23
2018-05-15T08:27:50.405Z,7.60
2018-05-15T08:30:18.729Z,8.70
2018-05-15T08:32:48.654Z,7.63
2018-05-15T08:35:16.571Z,14.80
2018-05-15T08:37:45.219Z,8.87
2018-05-15T08:40:13.541Z,8.07
2018-05-15T08:42:42.833Z,7.83
2018-05-15T08:45:11.202Z,7.20
2018-05-15T08:47:40.221Z,7.70
2018-05-15T08:50:08.651Z,7.67
2018-05-15T08:52:36.693Z,9.93
2018-05-15T08:55:05.185Z,8.57
2018-05-15T08:57:33.818Z,15.07
2018-05-15T09:00:02.743Z,6.87
2018-05-15T09:02:30.638Z,7.40
2018-05-15T09:04:59.832Z,8.30
2018-05-15T09:07:28.062Z,8.30
2018-05-15T09:09:56.504Z,8.37
2018-05-15T09:12:25.349Z,8.77
2018-05-15T09:14:54.378Z,6.73
2018-05-15T09:17:22.562Z,8.17
2018-05-15T09:19:50.722Z,6.83
2018-05-15T09:22:19.353Z,7.20
2018-05-15T09:24:48.690Z,6.20
2018-05-15T09:27:17.627Z,6.40
2018-05-15T09:29:46.506Z,5.60
2018-05-15T09:32:14.765Z,6.70
2018-05-15T09:34:44.474Z,6.90
2018-05-15T09:37:12.765Z,6.60
2018-05-15T09:39:41.709Z,7.13
2018-05-15T09:42:10.287Z,10.47
2018-05-15T09:44:38.718Z,8.10
2018-05-15T09:47:08.060Z,6.50
2018-05-15T09:49:37.069Z,6.03
2018-05-15T09:52:05.485Z,6.50
2018-05-15T09:54:33.835Z,9.43
2018-05-15T09:57:02.866Z,12.40
2018-05-15T09:59:31.556Z,6.37
2018-05-15T10:01:59.986Z,7.03
2018-05-15T10:04:28.086Z,6.17
2018-05-15T10:06:57.054Z,8.10
2018-05-15T10:09:25.397Z,6.77
2018-05-15T10:11:54.049Z,6.87
2018-05-15T10:14:23.461Z,6.43
2018-05-15T10:16:51.904Z,7.00
2018-05-15T10:19:20.252Z,6.53
2018-05-15T10:21:48.598Z,6.30
2018-05-15T10:24:17.374Z,6.63
2018-05-15T10:26:46.206Z,8.83
2018-05-15T10:29:15.013Z,7.87
2018-05-15T10:31:44.240Z,7.07
2018-05-15T10:34:12.759Z,6.90
2018-05-15T10:36:41.336Z,6.50
2018-05-15T10:39:09.874Z,7.63
2018-05-15T10:41:38.160Z,7.50
2018-05-15T10:44:07.595Z,7.00
2018-05-15T10:46:36.105Z,8.80
2018-05-15T10:49:04.623Z,9.40
2018-05-15T10:51:33.395Z,6.83
2018-05-15T10:54:02.406Z,7.10
2018-05-15T10:56:30.583Z,6.97
2018-05-15T10:58:59.436Z,6.53
2018-05-15T11:01:28.583Z,9.03
2018-05-15T11:03:56.845Z,6.97
2018-05-15T11:06:25.091Z,7.00
2018-05-15T11:08:53.216Z,7.17
2018-05-15T11:11:22.835Z,10.67
2018-05-15T11:13:51.314Z,6.07
2018-05-15T11:16:19.182Z,5.53
2018-05-15T11:18:47.727Z,5.83
2018-05-15T11:21:28.055Z,5.40
2018-05-15T11:37:24.294Z,10.80
2018-05-15T11:39:52.684Z,4.83
2018-05-15T11:42:22.081Z,10.13
2018-05-15T11:44:50.657Z,5.10
2018-05-15T11:47:19.392Z,5.57
2018-05-15T11:49:48.865Z,6.33
2018-05-15T11:52:17.717Z,4.97
2018-05-15T11:54:45.754Z,7.23
2018-05-15T11:57:13.697Z,6.53
2018-05-15T11:59:42.581Z,5.67
2018-05-15T12:02:11.078Z,7.13
2018-05-15T12:04:40.150Z,6.13
2018-05-15T12:07:08.693Z,5.73
2018-05-15T12:09:37.870Z,6.13
2018-05-15T12:12:06.681Z,6.10
2018-05-15T12:14:35.820Z,6.73
2018-05-15T12:17:04.561Z,7.20
2018-05-15T12:19:33.013Z,6.20
2018-05-15T12:22:02.064Z,6.73
2018-05-15T12:24:30.731Z,10.63
2018-05-15T12:26:59.748Z,5.90
2018-05-15T12:29:28.162Z,7.00
2018-05-15T12:31:56.515Z,6.27
2018-05-15T12:34:24.873Z,8.07
2018-05-15T12:36:53.488Z,7.60
2018-05-15T12:39:21.959Z,6.27
2018-05-15T12:41:50.815Z,6.50
2018-05-15T12:44:19.377Z,6.30
2018-05-15T12:46:47.898Z,7.70
2018-05-15T12:49:16.542Z,9.23
2018-05-15T12:51:45.493Z,6.63
2018-05-15T12:54:14.198Z,6.90
2018-05-15T12:56:43.740Z,5.77
2018-05-15T12:59:12.439Z,5.40
2018-05-15T13:01:41.053Z,13.07
2018-05-15T13:04:09.639Z,6.60
2018-05-15T13:06:38.211Z,10.03
2018-05-15T13:09:07.146Z,7.30
2018-05-15T13:11:35.427Z,7.97
2018-05-15T13:14:03.713Z,7.00
2018-05-15T13:16:32.875Z,7.90
2018-05-15T13:19:00.989Z,6.70
2018-05-15T13:21:29.012Z,8.00
2018-05-15T13:23:57.653Z,5.90
2018-05-15T13:26:25.875Z,6.67
2018-05-15T13:28:54.553Z,7.80
2018-05-15T13:31:23.195Z,8.83
2018-05-15T13:33:51.742Z,5.97
2018-05-15T13:36:20.586Z,16.00
2018-05-15T13:38:49.316Z,6.47
2018-05-15T13:41:18.313Z,7.90
2018-05-15T13:43:46.363Z,8.17
2018-05-15T13:46:14.459Z,9.30
2018-05-15T13:48:43.431Z,9.20
2018-05-15T13:51:11.975Z,7.67
2018-05-15T13:53:40.217Z,5.80
2018-05-15T13:56:08.946Z,6.00
2018-05-15T13:58:38.034Z,8.43
2018-05-15T14:01:06.068Z,7.10
2018-05-15T14:03:34.789Z,6.17
2018-05-15T14:06:03.346Z,6.17
2018-05-15T14:08:31.926Z,9.93
2018-05-15T14:11:00.382Z,7.43
2018-05-15T14:13:28.585Z,5.43
2018-05-15T14:15:57.238Z,7.70
2018-05-15T14:18:26.167Z,5.27
2018-05-15T14:20:55.042Z,8.03
2018-05-15T14:23:23.716Z,6.70
2018-05-15T14:25:53.350Z,5.97
2018-05-15T14:28:22.108Z,13.60
2018-05-15T14:30:51.384Z,6.53
2018-05-15T14:33:20.550Z,7.60
2018-05-15T14:35:48.635Z,6.67
2018-05-15T14:38:16.962Z,7.10
2018-05-15T14:40:45.353Z,5.90
2018-05-15T14:43:23.355Z,6.27
2018-05-15T14:45:51.946Z,5.77
2018-05-15T14:48:20.311Z,5.90
2018-05-15T15:04:33.278Z,7.97
2018-05-15T15:07:02.415Z,8.30
2018-05-15T15:09:31.393Z,6.83
2018-05-15T15:12:00.709Z,11.63
2018-05-15T15:14:29.893Z,6.47
2018-05-15T15:16:58.384Z,8.33
2018-05-15T15:19:26.950Z,7.17
2018-05-15T15:21:56.095Z,7.20
2018-05-15T15:24:25.583Z,7.47
2018-05-15T15:26:54.156Z,6.30
2018-05-15T15:29:22.904Z,8.70
2018-05-15T15:31:51.611Z,9.07
2018-05-15T15:34:20.549Z,7.00
2018-05-15T15:36:49.460Z,6.80
2018-05-15T15:39:17.988Z,7.17
2018-05-15T15:41:46.174Z,6.83
2018-05-15T15:44:14.873Z,7.30
2018-05-15T15:46:44.062Z,8.43
2018-05-15T15:49:12.476Z,7.43
2018-05-15T15:51:40.899Z,6.37
2018-05-15T15:54:09.657Z,6.87
2018-05-15T15:56:38.562Z,7.00
2018-05-15T15:59:06.590Z,6.10
2018-05-15T16:01:36.047Z,5.70
2018-05-15T16:04:05.754Z,8.80
2018-05-15T16:06:34.594Z,5.37
2018-05-15T16:09:03.258Z,6.43
2018-05-15T16:11:31.768Z,7.73
2018-05-15T16:14:00.469Z,7.37
2018-05-15T16:16:29.533Z,5.00
2018-05-15T16:18:59.582Z,4.73
2018-05-15T16:21:30.314Z,9.13
2018-05-15T16:23:58.712Z,4.80
2018-05-15T16:26:26.687Z,5.23
2018-05-15T16:28:55.092Z,5.90
2018-05-15T16:31:24.571Z,4.87
2018-05-15T16:33:53.114Z,5.50
2018-05-15T16:36:22.161Z,5.03
2018-05-15T16:38:51.981Z,5.67
2018-05-15T16:41:20.637Z,6.23
2018-05-15T16:43:49.385Z,5.80
2018-05-15T16:46:18.216Z,5.93
2018-05-15T16:48:46.028Z,5.30
2018-05-15T16:51:14.680Z,6.03
2018-05-15T16:53:43.897Z,6.40
2018-05-15T16:56:13.033Z,7.43
2018-05-15T16:58:41.820Z,7.13
2018-05-15T17:01:12.507Z,6.27
2018-05-15T17:03:41.421Z,7.83
2018-05-15T17:06:11.657Z,9.47
2018-05-15T17:08:42.283Z,8.50
2018-05-15T17:11:11.828Z,7.40
2018-05-15T17:13:41.060Z,7.30
2018-05-15T17:16:11.875Z,11.20
2018-05-15T17:18:42.299Z,8.10
2018-05-15T17:21:13.002Z,6.97
2018-05-15T17:23:42.728Z,7.43
2018-05-15T17:26:13.352Z,6.63
2018-05-15T17:28:43.944Z,10.10
2018-05-15T17:31:14.706Z,9.40
2018-05-15T17:33:45.127Z,8.37
2018-05-15T17:36:15.255Z,7.13
2018-05-15T17:38:45.061Z,7.80
2018-05-15T17:41:15.684Z,9.93
2018-05-15T17:43:45.686Z,8.83
2018-05-15T17:46:15.645Z,7.03
2018-05-15T17:48:46.293Z,6.80
2018-05-15T17:51:15.484Z,7.07
2018-05-15T17:53:44.533Z,6.53
2018-05-15T17:56:14.491Z,6.67
2018-05-15T17:58:44.933Z,7.00
2018-05-15T18:01:14.629Z,6.27
2018-05-15T18:03:44.842Z,6.60
2018-05-15T18:06:15.724Z,7.40
2018-05-15T18:08:44.739Z,8.30
2018-05-15T18:11:14.421Z,6.30
2018-05-15T18:13:44.652Z,8.17
2018-05-15T18:16:14.436Z,7.00
2018-05-15T18:18:44.605Z,7.13
2018-05-15T18:21:15.170Z,8.53
2018-05-15T18:23:45.619Z,10.37
2018-05-15T18:26:16.729Z,8.50
2018-05-15T18:28:46.946Z,10.13
2018-05-15T18:31:16.350Z,8.70
2018-05-15T18:33:46.114Z,8.97
2018-05-15T18:36:14.976Z,9.60
2018-05-15T18:38:44.595Z,5.37
2018-05-15T18:41:13.678Z,6.20
2018-05-15T18:43:43.057Z,8.80
2018-05-15T18:46:12.654Z,9.17
2018-05-15T18:48:41.474Z,7.07
2018-05-15T18:51:09.956Z,8.27
2018-05-15T18:53:38.705Z,7.87
2018-05-15T18:56:08.511Z,5.30
2018-05-15T18:58:37.310Z,8.00
2018-05-15T19:01:05.964Z,8.87
2018-05-15T19:03:34.971Z,4.53
2018-05-15T19:06:03.439Z,5.90
2018-05-15T19:08:32.424Z,6.03
2018-05-15T19:11:01.923Z,4.70
2018-05-15T19:13:31.098Z,7.57
2018-05-15T19:16:00.615Z,4.83
2018-05-15T19:18:28.868Z,5.87
2018-05-15T19:20:58.259Z,4.43
2018-05-15T19:23:27.348Z,4.13
2018-05-15T19:25:56.552Z,4.47
2018-05-15T19:28:25.700Z,5.00
2018-05-15T19:30:55.148Z,4.37
2018-05-15T19:33:30.066Z,5.50
2018-05-15T19:36:04.566Z,6.30
2018-05-15T19:38:33.399Z,5.70
2018-05-15T19:41:02.547Z,5.60
2018-05-15T19:43:31.278Z,5.27
2018-05-15T19:45:59.862Z,5.50
2018-05-15T19:48:28.075Z,5.53
2018-05-15T19:50:57.156Z,5.90
2018-05-15T19:53:26.251Z,5.17
2018-05-15T19:55:55.657Z,5.83
2018-05-15T19:58:24.549Z,5.97
2018-05-15T20:00:53.172Z,5.60
2018-05-15T20:03:21.987Z,6.10
2018-05-15T20:05:50.778Z,4.43
2018-05-15T20:08:19.597Z,5.00
2018-05-15T20:10:48.816Z,9.73
2018-05-15T20:13:17.390Z,9.03
2018-05-15T20:15:46.501Z,7.20
2018-05-15T20:18:15.797Z,6.00
2018-05-15T20:20:44.942Z,6.50
2018-05-15T20:23:14.460Z,5.83
2018-05-15T20:25:43.828Z,7.80
2018-05-15T20:28:12.334Z,5.77
2018-05-15T20:30:42.082Z,6.20
2018-05-15T20:33:11.948Z,6.97
2018-05-15T20:35:40.403Z,5.10
2018-05-15T20:38:09.063Z,8.13
2018-05-15T20:40:38.001Z,6.17
2018-05-15T20:43:06.725Z,6.17
2018-05-15T20:45:35.526Z,6.20
2018-05-15T20:48:04.551Z,6.30
2018-05-15T20:50:33.510Z,6.43
2018-05-15T20:53:02.525Z,5.97
2018-05-15T20:55:31.239Z,7.57
2018-05-15T20:58:00.517Z,7.33
2018-05-15T21:00:29.153Z,6.00
2018-05-15T21:02:57.606Z,5.40
2018-05-15T21:05:26.772Z,7.50
2018-05-15T21:07:55.782Z,6.07
2018-05-15T21:10:25.038Z,6.73
2018-05-15T21:12:54.254Z,6.33
2018-05-15T21:15:23.305Z,6.63
2018-05-15T21:17:52.364Z,6.03
2018-05-15T21:20:22.939Z,6.57
2018-05-15T21:22:52.054Z,6.73
2018-05-15T21:25:20.263Z,6.20
2018-05-15T21:27:49.066Z,7.23
2018-05-15T21:30:17.723Z,6.10
2018-05-15T21:32:47.702Z,8.10
2018-05-15T21:35:17.113Z,6.10
2018-05-15T21:37:45.901Z,6.83
2018-05-15T21:40:14.473Z,5.70
2018-05-15T21:42:42.975Z,8.60
2018-05-15T21:45:12.070Z,6.63
2018-05-15T21:47:41.251Z,7.60
2018-05-15T21:50:10.135Z,6.00
2018-05-15T21:52:40.396Z,7.50
2018-05-15T21:55:09.327Z,5.97
2018-05-15T21:57:38.523Z,6.47
2018-05-15T22:00:07.755Z,5.90
2018-05-15T22:02:36.055Z,6.73
2018-05-15T22:05:04.900Z,8.30
2018-05-15T22:07:34.930Z,6.37
2018-05-15T22:10:04.358Z,8.53
2018-05-15T22:12:44.821Z,6.07
2018-05-15T22:15:25.704Z,6.20
2018-05-15T22:18:06.463Z,6.60
2018-05-15T22:20:47.154Z,6.73
2018-05-15T22:23:15.242Z,7.30
2018-05-15T22:25:43.468Z,7.73
2018-05-15T22:28:12.266Z,9.17
2018-05-15T22:30:41.036Z,8.63
2018-05-15T22:33:10.090Z,8.03
2018-05-15T22:35:39.115Z,7.50
2018-05-15T22:38:08.171Z,8.87
2018-05-15T22:40:37.275Z,8.83
2018-05-15T22:43:06.282Z,6.13
2018-05-15T22:45:35.140Z,7.13
2018-05-15T22:48:05.134Z,6.83
2018-05-15T22:50:34.678Z,7.40
2018-05-15T22:53:03.758Z,7.73
2018-05-15T22:55:32.709Z,6.20
2018-05-15T22:58:01.472Z,9.87
2018-05-15T23:00:29.933Z,10.57
2018-05-15T23:02:58.932Z,7.17
2018-05-15T23:05:28.215Z,7.87
2018-05-15T23:07:56.888Z,6.73
2018-05-15T23:10:26.496Z,7.23
2018-05-15T23:12:55.730Z,6.97
2018-05-15T23:15:25.332Z,11.20
2018-05-15T23:17:54.695Z,7.00
2018-05-15T23:20:23.811Z,7.97
2018-05-15T23:22:53.059Z,9.33
2018-05-15T23:25:21.697Z,11.70
2018-05-15T23:27:50.299Z,7.67
2018-05-15T23:30:19.722Z,8.20
2018-05-15T23:32:48.787Z,7.10
2018-05-15T23:35:18.490Z,9.60
2018-05-15T23:37:47.769Z,8.40
2018-05-15T23:40:16.161Z,8.27
2018-05-15T23:42:46.109Z,10.20
2018-05-15T23:45:14.906Z,9.17
2018-05-15T23:47:44.891Z,9.57
2018-05-15T23:50:14.244Z,7.90
2018-05-15T23:52:43.663Z,10.00
2018-05-15T23:55:12.477Z,7.60
2018-05-15T23:57:41.464Z,9.37
